sensor_id;sensor_type;location;lat;lon;timestamp;P1;durP1;ratioP1;P2;durP2;ratioP2
47483;SDS011;54076;50.322;18.650;2023-11-18T00:02:28;9.60;;;5.70;;
47483;SDS011;54076;50.322;18.650;2023-11-18T00:07:29;11.20;;;5.60;;
47483;SDS011;54076;50.322;18.650;2023-11-18T00:12:30;9.90;;;5.40;;
47483;SDS011;54076;50.322;18.650;2023-11-18T00:17:31;8.80;;;5.10;;
47483;SDS011;54076;50.322;18.650;2023-11-18T00:22:32;9.90;;;5.50;;
47483;SDS011;54076;50.322;18.650;2023-11-18T00:27:33;9.60;;;5.00;;
47483;SDS011;54076;50.322;18.650;2023-11-18T00:32:37;9.90;;;5.00;;
47483;SDS011;54076;50.322;18.650;2023-11-18T00:37:39;7.80;;;4.60;;
47483;SDS011;54076;50.322;18.650;2023-11-18T00:42:40;10.20;;;4.90;;
47483;SDS011;54076;50.322;18.650;2023-11-18T00:47:41;7.40;;;4.60;;
47483;SDS011;54076;50.322;18.650;2023-11-18T00:52:42;8.90;;;5.00;;
47483;SDS011;54076;50.322;18.650;2023-11-18T00:57:44;8.10;;;4.40;;
47483;SDS011;54076;50.322;18.650;2023-11-18T01:02:45;8.10;;;4.40;;
47483;SDS011;54076;50.322;18.650;2023-11-18T01:07:48;6.70;;;3.60;;
47483;SDS011;54076;50.322;18.650;2023-11-18T01:12:50;6.80;;;3.70;;
47483;SDS011;54076;50.322;18.650;2023-11-18T01:17:51;5.70;;;2.60;;
47483;SDS011;54076;50.322;18.650;2023-11-18T01:22:52;5.70;;;2.90;;
47483;SDS011;54076;50.322;18.650;2023-11-18T01:27:53;5.60;;;3.10;;
47483;SDS011;54076;50.322;18.650;2023-11-18T01:32:54;7.00;;;3.50;;
47483;SDS011;54076;50.322;18.650;2023-11-18T01:37:55;7.60;;;4.00;;
47483;SDS011;54076;50.322;18.650;2023-11-18T01:42:56;6.10;;;3.70;;
47483;SDS011;54076;50.322;18.650;2023-11-18T01:47:57;6.40;;;3.80;;
47483;SDS011;54076;50.322;18.650;2023-11-18T01:52:58;7.40;;;4.20;;
47483;SDS011;54076;50.322;18.650;2023-11-18T01:58:02;7.50;;;3.90;;
47483;SDS011;54076;50.322;18.650;2023-11-18T02:03:08;7.70;;;4.30;;
47483;SDS011;54076;50.322;18.650;2023-11-18T02:08:10;8.40;;;3.90;;
47483;SDS011;54076;50.322;18.650;2023-11-18T02:13:21;7.00;;;4.20;;
47483;SDS011;54076;50.322;18.650;2023-11-18T02:18:29;7.90;;;4.40;;
47483;SDS011;54076;50.322;18.650;2023-11-18T02:23:31;7.10;;;3.90;;
47483;SDS011;54076;50.322;18.650;2023-11-18T02:28:32;7.80;;;4.00;;
47483;SDS011;54076;50.322;18.650;2023-11-18T02:33:44;8.00;;;4.00;;
47483;SDS011;54076;50.322;18.650;2023-11-18T02:39:12;8.30;;;4.10;;
47483;SDS011;54076;50.322;18.650;2023-11-18T02:44:18;8.20;;;4.30;;
47483;SDS011;54076;50.322;18.650;2023-11-18T02:49:23;6.60;;;3.50;;
47483;SDS011;54076;50.322;18.650;2023-11-18T02:54:24;6.30;;;3.60;;
47483;SDS011;54076;50.322;18.650;2023-11-18T02:59:26;6.40;;;3.10;;
47483;SDS011;54076;50.322;18.650;2023-11-18T03:04:30;6.40;;;3.50;;
47483;SDS011;54076;50.322;18.650;2023-11-18T03:09:33;4.70;;;2.80;;
47483;SDS011;54076;50.322;18.650;2023-11-18T03:14:35;4.90;;;2.40;;
47483;SDS011;54076;50.322;18.650;2023-11-18T03:19:36;4.60;;;2.50;;
47483;SDS011;54076;50.322;18.650;2023-11-18T03:24:37;5.30;;;2.40;;
47483;SDS011;54076;50.322;18.650;2023-11-18T03:29:38;4.70;;;2.60;;
47483;SDS011;54076;50.322;18.650;2023-11-18T03:34:40;4.10;;;2.30;;
47483;SDS011;54076;50.322;18.650;2023-11-18T03:39:41;4.90;;;2.60;;
47483;SDS011;54076;50.322;18.650;2023-11-18T03:44:42;4.70;;;2.50;;
47483;SDS011;54076;50.322;18.650;2023-11-18T03:49:43;4.90;;;2.10;;
47483;SDS011;54076;50.322;18.650;2023-11-18T03:54:44;5.40;;;2.30;;
47483;SDS011;54076;50.322;18.650;2023-11-18T03:59:45;3.90;;;2.10;;
47483;SDS011;54076;50.322;18.650;2023-11-18T04:04:46;3.80;;;2.20;;
47483;SDS011;54076;50.322;18.650;2023-11-18T04:09:47;4.50;;;2.30;;
47483;SDS011;54076;50.322;18.650;2023-11-18T04:14:48;5.00;;;2.70;;
47483;SDS011;54076;50.322;18.650;2023-11-18T04:19:49;5.00;;;2.80;;
47483;SDS011;54076;50.322;18.650;2023-11-18T04:24:50;5.20;;;2.90;;
47483;SDS011;54076;50.322;18.650;2023-11-18T04:29:51;5.60;;;3.00;;
47483;SDS011;54076;50.322;18.650;2023-11-18T04:34:52;8.90;;;3.00;;
47483;SDS011;54076;50.322;18.650;2023-11-18T04:39:53;4.50;;;2.60;;
47483;SDS011;54076;50.322;18.650;2023-11-18T04:44:57;5.50;;;2.80;;
47483;SDS011;54076;50.322;18.650;2023-11-18T04:49:58;4.70;;;2.30;;
47483;SDS011;54076;50.322;18.650;2023-11-18T04:54:59;4.80;;;2.70;;
47483;SDS011;54076;50.322;18.650;2023-11-18T05:00:01;4.70;;;2.60;;
47483;SDS011;54076;50.322;18.650;2023-11-18T05:05:10;4.70;;;2.40;;
47483;SDS011;54076;50.322;18.650;2023-11-18T05:10:11;6.00;;;2.20;;
47483;SDS011;54076;50.322;18.650;2023-11-18T05:15:12;4.00;;;2.10;;
47483;SDS011;54076;50.322;18.650;2023-11-18T05:20:13;3.80;;;2.00;;
47483;SDS011;54076;50.322;18.650;2023-11-18T05:25:14;5.90;;;2.10;;
47483;SDS011;54076;50.322;18.650;2023-11-18T05:30:15;3.00;;;1.80;;
47483;SDS011;54076;50.322;18.650;2023-11-18T05:35:17;3.40;;;1.70;;
47483;SDS011;54076;50.322;18.650;2023-11-18T05:40:18;3.00;;;1.50;;
47483;SDS011;54076;50.322;18.650;2023-11-18T05:45:20;3.80;;;2.00;;
47483;SDS011;54076;50.322;18.650;2023-11-18T05:50:37;6.40;;;2.30;;
47483;SDS011;54076;50.322;18.650;2023-11-18T05:55:38;5.10;;;2.70;;
47483;SDS011;54076;50.322;18.650;2023-11-18T06:00:47;6.30;;;2.80;;
47483;SDS011;54076;50.322;18.650;2023-11-18T06:05:48;5.20;;;2.50;;
47483;SDS011;54076;50.322;18.650;2023-11-18T06:10:50;6.00;;;2.70;;
47483;SDS011;54076;50.322;18.650;2023-11-18T06:15:56;5.80;;;2.60;;
47483;SDS011;54076;50.322;18.650;2023-11-18T06:20:59;5.60;;;2.70;;
47483;SDS011;54076;50.322;18.650;2023-11-18T06:26:00;8.30;;;4.00;;
47483;SDS011;54076;50.322;18.650;2023-11-18T06:31:02;7.80;;;4.00;;
47483;SDS011;54076;50.322;18.650;2023-11-18T06:36:05;8.10;;;3.80;;
47483;SDS011;54076;50.322;18.650;2023-11-18T06:41:08;11.50;;;4.70;;
47483;SDS011;54076;50.322;18.650;2023-11-18T06:46:11;12.00;;;5.10;;
47483;SDS011;54076;50.322;18.650;2023-11-18T06:51:18;11.40;;;5.50;;
47483;SDS011;54076;50.322;18.650;2023-11-18T06:56:19;12.30;;;6.00;;
47483;SDS011;54076;50.322;18.650;2023-11-18T07:01:20;15.30;;;6.20;;
47483;SDS011;54076;50.322;18.650;2023-11-18T07:06:21;15.70;;;6.60;;
47483;SDS011;54076;50.322;18.650;2023-11-18T07:11:22;17.80;;;6.90;;
47483;SDS011;54076;50.322;18.650;2023-11-18T07:16:24;17.60;;;7.00;;
47483;SDS011;54076;50.322;18.650;2023-11-18T07:21:26;19.00;;;7.30;;
47483;SDS011;54076;50.322;18.650;2023-11-18T07:26:26;17.90;;;7.40;;
47483;SDS011;54076;50.322;18.650;2023-11-18T07:31:28;17.60;;;7.60;;
47483;SDS011;54076;50.322;18.650;2023-11-18T07:36:29;16.80;;;7.00;;
47483;SDS011;54076;50.322;18.650;2023-11-18T07:41:30;20.80;;;7.50;;
47483;SDS011;54076;50.322;18.650;2023-11-18T07:46:32;21.00;;;8.40;;
47483;SDS011;54076;50.322;18.650;2023-11-18T07:51:33;15.70;;;7.10;;
47483;SDS011;54076;50.322;18.650;2023-11-18T07:56:34;15.00;;;7.10;;
47483;SDS011;54076;50.322;18.650;2023-11-18T08:01:41;17.80;;;7.10;;
47483;SDS011;54076;50.322;18.650;2023-11-18T08:06:45;16.60;;;6.50;;
47483;SDS011;54076;50.322;18.650;2023-11-18T08:11:46;14.70;;;6.90;;
47483;SDS011;54076;50.322;18.650;2023-11-18T08:16:47;15.20;;;6.40;;
47483;SDS011;54076;50.322;18.650;2023-11-18T08:21:48;18.10;;;7.60;;
47483;SDS011;54076;50.322;18.650;2023-11-18T08:26:49;20.80;;;8.00;;
47483;SDS011;54076;50.322;18.650;2023-11-18T08:31:50;20.20;;;8.60;;
47483;SDS011;54076;50.322;18.650;2023-11-18T08:36:52;19.10;;;8.00;;
47483;SDS011;54076;50.322;18.650;2023-11-18T08:41:53;16.80;;;7.40;;
47483;SDS011;54076;50.322;18.650;2023-11-18T08:46:54;17.80;;;7.10;;
47483;SDS011;54076;50.322;18.650;2023-11-18T08:51:55;15.40;;;7.80;;
47483;SDS011;54076;50.322;18.650;2023-11-18T08:56:56;22.10;;;9.90;;
47483;SDS011;54076;50.322;18.650;2023-11-18T09:01:58;12.70;;;5.70;;
47483;SDS011;54076;50.322;18.650;2023-11-18T09:07:00;13.90;;;5.60;;
47483;SDS011;54076;50.322;18.650;2023-11-18T09:12:01;13.60;;;6.00;;
47483;SDS011;54076;50.322;18.650;2023-11-18T09:17:03;11.70;;;5.40;;
47483;SDS011;54076;50.322;18.650;2023-11-18T09:22:07;13.70;;;6.00;;
47483;SDS011;54076;50.322;18.650;2023-11-18T09:27:08;12.50;;;5.50;;
47483;SDS011;54076;50.322;18.650;2023-11-18T09:32:10;9.60;;;4.90;;
47483;SDS011;54076;50.322;18.650;2023-11-18T09:37:13;9.70;;;4.70;;
47483;SDS011;54076;50.322;18.650;2023-11-18T09:42:15;15.60;;;6.60;;
47483;SDS011;54076;50.322;18.650;2023-11-18T09:47:19;8.80;;;4.40;;
47483;SDS011;54076;50.322;18.650;2023-11-18T09:52:25;8.20;;;4.10;;
47483;SDS011;54076;50.322;18.650;2023-11-18T09:57:31;9.80;;;4.30;;
47483;SDS011;54076;50.322;18.650;2023-11-18T10:17:18;5.90;;;3.30;;
47483;SDS011;54076;50.322;18.650;2023-11-18T10:26:21;5.80;;;3.40;;
47483;SDS011;54076;50.322;18.650;2023-11-18T10:31:25;6.70;;;3.30;;
47483;SDS011;54076;50.322;18.650;2023-11-18T10:36:27;6.30;;;3.90;;
47483;SDS011;54076;50.322;18.650;2023-11-18T10:41:28;6.30;;;3.40;;
47483;SDS011;54076;50.322;18.650;2023-11-18T10:46:31;6.00;;;3.30;;
47483;SDS011;54076;50.322;18.650;2023-11-18T10:51:32;6.90;;;3.60;;
47483;SDS011;54076;50.322;18.650;2023-11-18T10:56:35;6.40;;;3.50;;
47483;SDS011;54076;50.322;18.650;2023-11-18T11:01:38;7.00;;;4.00;;
47483;SDS011;54076;50.322;18.650;2023-11-18T11:06:44;15.20;;;7.00;;
47483;SDS011;54076;50.322;18.650;2023-11-18T11:11:57;9.60;;;5.00;;
47483;SDS011;54076;50.322;18.650;2023-11-18T11:17:06;8.10;;;4.00;;
47483;SDS011;54076;50.322;18.650;2023-11-18T11:22:12;9.00;;;4.20;;
47483;SDS011;54076;50.322;18.650;2023-11-18T11:27:30;7.60;;;4.30;;
47483;SDS011;54076;50.322;18.650;2023-11-18T11:32:50;7.70;;;4.40;;
47483;SDS011;54076;50.322;18.650;2023-11-18T11:37:59;7.20;;;4.20;;
47483;SDS011;54076;50.322;18.650;2023-11-18T11:43:06;7.20;;;4.30;;
47483;SDS011;54076;50.322;18.650;2023-11-18T11:48:16;7.70;;;4.60;;
47483;SDS011;54076;50.322;18.650;2023-11-18T11:53:22;8.30;;;4.60;;
47483;SDS011;54076;50.322;18.650;2023-11-18T11:58:26;8.50;;;4.70;;
47483;SDS011;54076;50.322;18.650;2023-11-18T12:03:28;10.10;;;4.90;;
47483;SDS011;54076;50.322;18.650;2023-11-18T12:08:36;9.00;;;4.80;;
47483;SDS011;54076;50.322;18.650;2023-11-18T12:13:38;8.30;;;4.70;;
47483;SDS011;54076;50.322;18.650;2023-11-18T12:18:45;7.90;;;4.60;;
47483;SDS011;54076;50.322;18.650;2023-11-18T12:24:24;9.40;;;5.30;;
47483;SDS011;54076;50.322;18.650;2023-11-18T12:29:34;10.20;;;5.30;;
47483;SDS011;54076;50.322;18.650;2023-11-18T12:34:53;10.00;;;4.60;;
47483;SDS011;54076;50.322;18.650;2023-11-18T12:40:28;9.10;;;4.60;;
47483;SDS011;54076;50.322;18.650;2023-11-18T12:46:24;9.00;;;4.80;;
47483;SDS011;54076;50.322;18.650;2023-11-18T12:51:37;9.30;;;4.70;;
47483;SDS011;54076;50.322;18.650;2023-11-18T12:56:39;8.80;;;4.60;;
47483;SDS011;54076;50.322;18.650;2023-11-18T13:01:47;10.90;;;5.80;;
47483;SDS011;54076;50.322;18.650;2023-11-18T13:06:54;13.70;;;6.70;;
47483;SDS011;54076;50.322;18.650;2023-11-18T13:11:56;11.90;;;6.50;;
47483;SDS011;54076;50.322;18.650;2023-11-18T13:16:58;9.70;;;5.40;;
47483;SDS011;54076;50.322;18.650;2023-11-18T13:22:02;9.30;;;5.60;;
47483;SDS011;54076;50.322;18.650;2023-11-18T13:27:12;9.90;;;4.70;;
47483;SDS011;54076;50.322;18.650;2023-11-18T13:32:15;8.90;;;4.80;;
47483;SDS011;54076;50.322;18.650;2023-11-18T13:37:16;10.20;;;5.20;;
47483;SDS011;54076;50.322;18.650;2023-11-18T13:47:21;10.90;;;5.60;;
47483;SDS011;54076;50.322;18.650;2023-11-18T13:52:23;11.90;;;5.80;;
47483;SDS011;54076;50.322;18.650;2023-11-18T13:57:26;11.10;;;6.20;;
47483;SDS011;54076;50.322;18.650;2023-11-18T14:02:28;12.00;;;6.00;;
47483;SDS011;54076;50.322;18.650;2023-11-18T14:07:29;13.80;;;5.70;;
47483;SDS011;54076;50.322;18.650;2023-11-18T14:12:30;12.30;;;6.20;;
47483;SDS011;54076;50.322;18.650;2023-11-18T14:17:31;11.80;;;5.70;;
47483;SDS011;54076;50.322;18.650;2023-11-18T14:22:32;52.10;;;20.90;;
47483;SDS011;54076;50.322;18.650;2023-11-18T14:27:33;13.00;;;6.30;;
47483;SDS011;54076;50.322;18.650;2023-11-18T14:32:34;12.40;;;6.20;;
47483;SDS011;54076;50.322;18.650;2023-11-18T14:37:38;12.90;;;5.90;;
47483;SDS011;54076;50.322;18.650;2023-11-18T14:42:46;13.10;;;5.90;;
47483;SDS011;54076;50.322;18.650;2023-11-18T14:47:48;12.50;;;5.90;;
47483;SDS011;54076;50.322;18.650;2023-11-18T14:52:50;11.10;;;6.10;;
47483;SDS011;54076;50.322;18.650;2023-11-18T14:58:00;11.80;;;6.40;;
47483;SDS011;54076;50.322;18.650;2023-11-18T15:03:01;11.40;;;5.90;;
47483;SDS011;54076;50.322;18.650;2023-11-18T15:08:03;12.10;;;5.50;;
47483;SDS011;54076;50.322;18.650;2023-11-18T15:13:04;10.80;;;5.70;;
47483;SDS011;54076;50.322;18.650;2023-11-18T15:18:05;13.20;;;6.00;;
47483;SDS011;54076;50.322;18.650;2023-11-18T15:23:10;13.80;;;6.90;;
47483;SDS011;54076;50.322;18.650;2023-11-18T15:28:12;13.00;;;7.00;;
47483;SDS011;54076;50.322;18.650;2023-11-18T15:33:14;14.20;;;7.30;;
47483;SDS011;54076;50.322;18.650;2023-11-18T15:38:15;13.50;;;6.20;;
47483;SDS011;54076;50.322;18.650;2023-11-18T15:43:19;12.50;;;6.70;;
47483;SDS011;54076;50.322;18.650;2023-11-18T15:48:20;13.10;;;6.80;;
47483;SDS011;54076;50.322;18.650;2023-11-18T15:53:21;13.90;;;6.90;;
47483;SDS011;54076;50.322;18.650;2023-11-18T15:58:23;14.30;;;6.60;;
47483;SDS011;54076;50.322;18.650;2023-11-18T16:03:27;12.60;;;6.20;;
47483;SDS011;54076;50.322;18.650;2023-11-18T16:08:28;13.60;;;6.80;;
47483;SDS011;54076;50.322;18.650;2023-11-18T16:13:29;14.50;;;7.00;;
47483;SDS011;54076;50.322;18.650;2023-11-18T16:18:30;13.10;;;6.40;;
47483;SDS011;54076;50.322;18.650;2023-11-18T16:23:31;14.90;;;6.30;;
47483;SDS011;54076;50.322;18.650;2023-11-18T16:28:35;14.40;;;6.80;;
47483;SDS011;54076;50.322;18.650;2023-11-18T16:33:37;13.70;;;6.40;;
47483;SDS011;54076;50.322;18.650;2023-11-18T16:38:38;29.20;;;13.10;;
47483;SDS011;54076;50.322;18.650;2023-11-18T16:43:39;16.30;;;7.50;;
47483;SDS011;54076;50.322;18.650;2023-11-18T16:48:40;18.80;;;7.80;;
47483;SDS011;54076;50.322;18.650;2023-11-18T16:53:41;16.00;;;7.90;;
47483;SDS011;54076;50.322;18.650;2023-11-18T16:58:42;16.00;;;7.30;;
47483;SDS011;54076;50.322;18.650;2023-11-18T17:03:43;16.50;;;8.30;;
47483;SDS011;54076;50.322;18.650;2023-11-18T17:08:44;15.80;;;8.20;;
47483;SDS011;54076;50.322;18.650;2023-11-18T17:13:45;16.30;;;7.80;;
47483;SDS011;54076;50.322;18.650;2023-11-18T17:18:47;16.60;;;8.00;;
47483;SDS011;54076;50.322;18.650;2023-11-18T17:23:48;15.30;;;7.60;;
47483;SDS011;54076;50.322;18.650;2023-11-18T17:28:49;15.70;;;7.50;;
47483;SDS011;54076;50.322;18.650;2023-11-18T17:33:51;15.40;;;7.70;;
47483;SDS011;54076;50.322;18.650;2023-11-18T17:38:52;15.20;;;7.50;;
47483;SDS011;54076;50.322;18.650;2023-11-18T17:43:53;17.50;;;7.70;;
47483;SDS011;54076;50.322;18.650;2023-11-18T17:48:54;16.00;;;7.30;;
47483;SDS011;54076;50.322;18.650;2023-11-18T17:53:55;17.40;;;8.10;;
47483;SDS011;54076;50.322;18.650;2023-11-18T17:58:55;19.40;;;8.20;;
47483;SDS011;54076;50.322;18.650;2023-11-18T18:03:56;17.60;;;8.50;;
47483;SDS011;54076;50.322;18.650;2023-11-18T18:08:57;16.60;;;7.70;;
47483;SDS011;54076;50.322;18.650;2023-11-18T18:13:59;18.20;;;8.50;;
47483;SDS011;54076;50.322;18.650;2023-11-18T18:19:00;18.10;;;7.70;;
47483;SDS011;54076;50.322;18.650;2023-11-18T18:24:01;16.10;;;8.40;;
47483;SDS011;54076;50.322;18.650;2023-11-18T18:29:02;16.70;;;7.90;;
47483;SDS011;54076;50.322;18.650;2023-11-18T18:34:03;22.30;;;9.40;;
47483;SDS011;54076;50.322;18.650;2023-11-18T18:39:04;19.40;;;7.80;;
47483;SDS011;54076;50.322;18.650;2023-11-18T18:44:06;18.10;;;8.20;;
47483;SDS011;54076;50.322;18.650;2023-11-18T18:49:07;16.70;;;7.50;;
47483;SDS011;54076;50.322;18.650;2023-11-18T18:54:10;19.10;;;8.70;;
47483;SDS011;54076;50.322;18.650;2023-11-18T18:59:11;18.00;;;8.20;;
47483;SDS011;54076;50.322;18.650;2023-11-18T19:04:12;21.40;;;8.70;;
47483;SDS011;54076;50.322;18.650;2023-11-18T19:09:13;20.10;;;8.60;;
47483;SDS011;54076;50.322;18.650;2023-11-18T19:14:15;18.50;;;8.60;;
47483;SDS011;54076;50.322;18.650;2023-11-18T19:19:16;19.30;;;9.00;;
47483;SDS011;54076;50.322;18.650;2023-11-18T19:24:18;20.20;;;9.50;;
47483;SDS011;54076;50.322;18.650;2023-11-18T19:29:20;20.10;;;9.20;;
47483;SDS011;54076;50.322;18.650;2023-11-18T19:34:21;18.90;;;8.70;;
47483;SDS011;54076;50.322;18.650;2023-11-18T19:39:22;17.80;;;8.40;;
47483;SDS011;54076;50.322;18.650;2023-11-18T19:44:23;17.60;;;8.00;;
47483;SDS011;54076;50.322;18.650;2023-11-18T19:49:24;15.40;;;7.30;;
47483;SDS011;54076;50.322;18.650;2023-11-18T19:54:25;18.20;;;7.60;;
47483;SDS011;54076;50.322;18.650;2023-11-18T19:59:27;15.10;;;7.50;;
47483;SDS011;54076;50.322;18.650;2023-11-18T20:04:29;15.40;;;7.60;;
47483;SDS011;54076;50.322;18.650;2023-11-18T20:09:30;15.90;;;7.30;;
47483;SDS011;54076;50.322;18.650;2023-11-18T20:14:32;15.00;;;7.30;;
47483;SDS011;54076;50.322;18.650;2023-11-18T20:19:33;15.30;;;7.10;;
47483;SDS011;54076;50.322;18.650;2023-11-18T20:24:36;18.30;;;7.80;;
47483;SDS011;54076;50.322;18.650;2023-11-18T20:29:38;17.70;;;7.20;;
47483;SDS011;54076;50.322;18.650;2023-11-18T20:34:41;16.00;;;7.30;;
47483;SDS011;54076;50.322;18.650;2023-11-18T20:39:42;13.10;;;6.80;;
47483;SDS011;54076;50.322;18.650;2023-11-18T20:44:43;15.00;;;7.60;;
47483;SDS011;54076;50.322;18.650;2023-11-18T20:49:44;15.00;;;7.20;;
47483;SDS011;54076;50.322;18.650;2023-11-18T20:54:45;16.00;;;7.50;;
47483;SDS011;54076;50.322;18.650;2023-11-18T20:59:46;14.90;;;7.40;;
47483;SDS011;54076;50.322;18.650;2023-11-18T21:04:47;15.30;;;7.10;;
47483;SDS011;54076;50.322;18.650;2023-11-18T21:09:48;14.00;;;7.10;;
47483;SDS011;54076;50.322;18.650;2023-11-18T21:14:49;16.00;;;7.20;;
47483;SDS011;54076;50.322;18.650;2023-11-18T21:19:51;15.20;;;7.00;;
47483;SDS011;54076;50.322;18.650;2023-11-18T21:24:56;17.10;;;7.60;;
47483;SDS011;54076;50.322;18.650;2023-11-18T21:29:58;17.70;;;7.30;;
47483;SDS011;54076;50.322;18.650;2023-11-18T21:35:00;17.10;;;7.30;;
47483;SDS011;54076;50.322;18.650;2023-11-18T21:40:01;14.40;;;7.40;;
47483;SDS011;54076;50.322;18.650;2023-11-18T21:45:03;14.10;;;7.00;;
47483;SDS011;54076;50.322;18.650;2023-11-18T21:50:04;15.40;;;7.20;;
47483;SDS011;54076;50.322;18.650;2023-11-18T21:55:07;16.00;;;7.20;;
47483;SDS011;54076;50.322;18.650;2023-11-18T22:00:13;14.50;;;7.20;;
47483;SDS011;54076;50.322;18.650;2023-11-18T22:05:17;14.60;;;7.10;;
47483;SDS011;54076;50.322;18.650;2023-11-18T22:10:18;18.60;;;8.20;;
47483;SDS011;54076;50.322;18.650;2023-11-18T22:15:21;16.50;;;7.20;;
47483;SDS011;54076;50.322;18.650;2023-11-18T22:20:22;15.70;;;7.70;;
47483;SDS011;54076;50.322;18.650;2023-11-18T22:25:25;16.80;;;7.60;;
47483;SDS011;54076;50.322;18.650;2023-11-18T22:30:27;14.10;;;7.00;;
47483;SDS011;54076;50.322;18.650;2023-11-18T22:35:28;17.30;;;6.80;;
47483;SDS011;54076;50.322;18.650;2023-11-18T22:40:31;15.00;;;7.10;;
47483;SDS011;54076;50.322;18.650;2023-11-18T22:45:32;16.70;;;7.50;;
47483;SDS011;54076;50.322;18.650;2023-11-18T22:50:33;16.80;;;7.50;;
47483;SDS011;54076;50.322;18.650;2023-11-18T22:55:38;17.30;;;7.80;;
47483;SDS011;54076;50.322;18.650;2023-11-18T23:00:39;13.40;;;6.70;;
47483;SDS011;54076;50.322;18.650;2023-11-18T23:05:43;16.70;;;7.50;;
47483;SDS011;54076;50.322;18.650;2023-11-18T23:10:44;18.90;;;7.70;;
47483;SDS011;54076;50.322;18.650;2023-11-18T23:15:46;14.60;;;6.90;;
47483;SDS011;54076;50.322;18.650;2023-11-18T23:20:47;14.30;;;7.30;;
47483;SDS011;54076;50.322;18.650;2023-11-18T23:25:48;15.40;;;7.40;;
47483;SDS011;54076;50.322;18.650;2023-11-18T23:30:49;14.20;;;7.40;;
47483;SDS011;54076;50.322;18.650;2023-11-18T23:35:50;21.90;;;9.70;;
47483;SDS011;54076;50.322;18.650;2023-11-18T23:40:53;18.00;;;7.80;;
47483;SDS011;54076;50.322;18.650;2023-11-18T23:45:55;17.90;;;8.60;;
47483;SDS011;54076;50.322;18.650;2023-11-18T23:50:56;18.50;;;9.10;;
47483;SDS011;54076;50.322;18.650;2023-11-18T23:55:58;20.60;;;9.40;;
